メインページ
METAR-TAF:

METAR-TAF

空港 :

コペンハーゲン, デンマーク

コペンハーゲン空港

緯度: 55-37N, 経度: 012-39E, 海抜: 5m

現時点の気象観測

当レポートは28分前の22:50(UTC)に作成
南/南東の風 8kt
気温 16°C
湿度 72%
気圧 1020 hPa
視程10km以上
1,500メートル以下は雲なし、積乱雲なし

METAR: EKCH 272250Z 15008KT CAVOK 16/11 Q1020 NOSIG

時間: 01:18 (23:18 UTC)

予報

当レポートは6時間7分前の17:11(UTC)に作成
予報は27日の 18時(UTC)から 28日の 18時(UTC)まで有効
の風 10kt
視程10km以上
1,500メートル以下は雲なし、積乱雲なし
28日の 11時(UTC)から 28日の 13時(UTC)まで一時的に
視程10km以上
高度5000ftの雲は散在している, 積乱雲.
にわか雨
28日の 12時(UTC)から 28日の 14時(UTC)まで徐々に
西/南西の風 15kt

TAF: EKCH 271711Z 2718/2818 18010KT CAVOK TEMPO 2811/2813 9999 SHRA SCT050CB BECMG 2812/2814 24015KT

4,000以上の空港の気象観測と天気予報(METAR報とTAF報)

利用可能な観測所は地図上に黄色い丸と赤い丸で示す。

丸の上にカーソルを重ねると観測所名を参照できる。

次にクリックすると気象観測と天気予報を参照できる。

マップの切り替え:黒色「×」印の緑ボタンをクリックして拡大、「-」印の緑ボタンをクリックして縮小、緑色の三角印をクリックして隣りの地図に切り替え


METAR-TAF: